Tarifa en Andalucia

latitud = 36° 01' 08''N | longitud = 005° 35' 58''W
56 metros sobre el nivel del mar | datos mensuales

Fecha, hora, temperatura, viento dirección y velocidad, humedad y presión.

  • 25-09-2017 00:00:00 | 22.80°C | Este |14.00 km/h | 97.00% | 0.00 hPa
  • 24-09-2017 23:00:00 | 22.30°C | Este |18.00 km/h | 97.00% | 0.00 hPa
  • 24-09-2017 22:00:00 | 22.60°C | Este |24.00 km/h | 97.00% | 0.00 hPa
  • 24-09-2017 21:00:00 | 23.10°C | Este |22.00 km/h | 96.00% | 0.00 hPa
  • 24-09-2017 20:00:00 | 23.50°C | Este |27.00 km/h | 95.00% | 0.00 hPa
  • 24-09-2017 19:00:00 | 23.40°C | Este |29.00 km/h | 87.00% | 0.00 hPa
  • 24-09-2017 18:00:00 | 25.10°C | Este |27.00 km/h | 81.00% | 0.00 hPa
  • 24-09-2017 17:00:00 | 25.50°C | Este |29.00 km/h | 77.00% | 0.00 hPa
  • 24-09-2017 16:00:00 | 26.00°C | Este |29.00 km/h | 73.00% | 0.00 hPa
  • 24-09-2017 15:00:00 | 26.00°C | Este |28.00 km/h | 72.00% | 0.00 hPa
  • 24-09-2017 14:00:00 | 26.60°C | Este |27.00 km/h | 72.00% | 0.00 hPa
  • 24-09-2017 13:00:00 | 26.10°C | Este |29.00 km/h | 76.00% | 0.00 hPa
  • 24-09-2017 12:00:00 | 25.50°C | Este |27.00 km/h | 78.00% | 0.00 hPa
  • 24-09-2017 11:00:00 | 25.10°C | Este |27.00 km/h | 81.00% | 0.00 hPa
  • 24-09-2017 10:00:00 | 24.00°C | Este |29.00 km/h | 87.00% | 0.00 hPa
  • 24-09-2017 09:00:00 | 23.10°C | Este |26.00 km/h | 95.00% | 0.00 hPa
  • 24-09-2017 08:00:00 | 22.60°C | Este |25.00 km/h | 97.00% | 0.00 hPa
  • 24-09-2017 07:00:00 | 22.40°C | Este |26.00 km/h | 96.00% | 0.00 hPa
  • 24-09-2017 06:00:00 | 21.50°C | Este |25.00 km/h | 98.00% | 0.00 hPa
  • 24-09-2017 05:00:00 | 23.00°C | Este |22.00 km/h | 94.00% | 0.00 hPa
  • 24-09-2017 04:00:00 | 23.40°C | Este |27.00 km/h | 96.00% | 0.00 hPa
  • 24-09-2017 03:00:00 | 23.40°C | Este |28.00 km/h | 96.00% | 0.00 hPa
  • 24-09-2017 02:00:00 | 23.10°C | Este |32.00 km/h | 96.00% | 0.00 hPa
  • 24-09-2017 01:00:00 | 23.10°C | Este |32.00 km/h | 96.00% | 0.00 hPa